Time;durP1;ratioP1;P1;durP2;ratioP2;P2;SDS_P1;SDS_P2;PMS_P1;PMS_P2;Temp;Humidity;BMP_temperature;BMP_pressure;BME280_temperature;BME280_humidity;BME280_pressure;Samples;Min_cycle;Max_cycle;Signal;HPM_P1;HPM_P2
2021/10/22 00:01:00;;;;;;;29.60;27.13;;;6.80;99.90;;;;;;4353707;33;20198;-63
2021/10/22 00:03:29;;;;;;;24.67;22.77;;;6.80;99.90;;;;;;4361122;33;20215;-63
2021/10/22 00:05:56;;;;;;;26.33;24.53;;;6.80;99.90;;;;;;4360595;33;20165;-61
2021/10/22 00:08:24;;;;;;;24.63;23.00;;;6.80;99.90;;;;;;4363509;32;20165;-61
2021/10/22 00:10:51;;;;;;;24.10;21.80;;;6.80;99.90;;;;;;4359162;32;20198;-63
2021/10/22 00:13:18;;;;;;;27.37;24.67;;;6.70;99.90;;;;;;4360559;32;20169;-61
2021/10/22 00:15:46;;;;;;;26.93;24.87;;;6.70;99.90;;;;;;4357563;33;20187;-61
2021/10/22 00:18:13;;;;;;;23.00;21.37;;;6.70;99.90;;;;;;4360644;33;20513;-60
2021/10/22 00:20:41;;;;;;;23.20;21.27;;;6.70;99.90;;;;;;4361553;32;20227;-63
2021/10/22 00:23:08;;;;;;;26.03;23.80;;;6.60;99.90;;;;;;4358001;33;20571;-62
2021/10/22 00:25:35;;;;;;;30.20;28.00;;;6.50;99.90;;;;;;4358311;32;20173;-64
2021/10/22 00:28:02;;;;;;;26.60;24.30;;;6.50;99.90;;;;;;4360090;33;21265;-61
2021/10/22 00:30:29;;;;;;;30.20;27.67;;;6.50;99.90;;;;;;4361043;32;20172;-61
2021/10/22 00:32:56;;;;;;;27.00;25.27;;;6.50;99.90;;;;;;4360789;32;20171;-61
2021/10/22 00:35:23;;;;;;;27.77;25.33;;;6.50;99.90;;;;;;4360953;33;20153;-62
2021/10/22 00:37:51;;;;;;;26.10;23.97;;;6.50;99.90;;;;;;4360071;32;20604;-61
2021/10/22 00:40:21;;;;;;;28.20;26.07;;;6.40;99.90;;;;;;4361557;32;20179;-61
2021/10/22 00:42:48;;;;;;;28.90;26.30;;;6.50;99.90;;;;;;4362340;32;20157;-62
2021/10/22 00:45:15;;;;;;;26.07;24.03;;;6.50;99.90;;;;;;4360076;33;20248;-61
2021/10/22 00:47:43;;;;;;;27.03;25.00;;;6.40;99.90;;;;;;4360674;33;20164;-63
2021/10/22 00:50:10;;;;;;;30.13;28.00;;;6.40;99.90;;;;;;4359707;33;20239;-61
2021/10/22 00:52:37;;;;;;;27.27;25.67;;;6.40;99.90;;;;;;4362888;32;20176;-61
2021/10/22 00:55:06;;;;;;;24.67;22.87;;;6.30;99.90;;;;;;4369927;32;20165;-61
2021/10/22 00:57:33;;;;;;;27.03;25.17;;;6.30;99.90;;;;;;4354006;32;20172;-61
2021/10/22 01:00:00;;;;;;;27.97;25.90;;;6.30;99.90;;;;;;4360528;32;20183;-61
2021/10/22 01:02:26;;;;;;;26.23;24.03;;;6.30;99.90;;;;;;4354816;32;20199;-61
2021/10/22 01:04:53;;;;;;;29.97;27.17;;;6.30;99.90;;;;;;4354809;33;20172;-61
2021/10/22 01:07:20;;;;;;;24.90;23.40;;;6.30;99.90;;;;;;4359713;32;20169;-61
2021/10/22 01:09:47;;;;;;;25.67;24.03;;;6.30;99.90;;;;;;4359598;33;20216;-61
2021/10/22 01:12:16;;;;;;;25.50;23.80;;;6.20;99.90;;;;;;4359861;32;20174;-61
2021/10/22 01:14:43;;;;;;;27.57;25.50;;;6.20;99.90;;;;;;4361171;32;20205;-62
2021/10/22 01:17:31;;;;;;;26.57;24.67;;;6.20;99.90;;;;;;4359818;33;20216;-62
2021/10/22 01:19:57;;;;;;;26.10;24.30;;;6.20;99.90;;;;;;4359481;32;20486;-61
2021/10/22 01:22:26;;;;;;;28.03;26.17;;;6.30;99.90;;;;;;4359516;33;20164;-62
2021/10/22 01:24:53;;;;;;;29.80;27.73;;;6.10;99.90;;;;;;4359903;32;20208;-61
2021/10/22 01:27:19;;;;;;;30.87;29.17;;;6.20;99.90;;;;;;4347234;33;20180;-61
2021/10/22 01:29:46;;;;;;;26.53;24.67;;;6.10;99.90;;;;;;4357573;32;20544;-61
2021/10/22 01:32:13;;;;;;;28.27;25.93;;;6.10;99.90;;;;;;4360331;33;20164;-60
2021/10/22 01:34:40;;;;;;;29.13;27.03;;;6.10;99.90;;;;;;4359774;33;20221;-61
2021/10/22 01:37:07;;;;;;;25.60;23.67;;;6.10;99.90;;;;;;4359934;33;20156;-60
2021/10/22 01:39:35;;;;;;;27.10;25.07;;;6.00;99.90;;;;;;4359592;33;20172;-61
2021/10/22 01:42:03;;;;;;;27.10;25.30;;;6.10;99.90;;;;;;4359486;32;20161;-59
2021/10/22 01:44:30;;;;;;;31.20;29.27;;;6.10;99.90;;;;;;4361370;33;20217;-61
2021/10/22 01:46:59;;;;;;;28.70;26.23;;;6.10;99.90;;;;;;4361421;33;20209;-60
2021/10/22 01:49:26;;;;;;;26.93;24.90;;;6.20;99.90;;;;;;4361358;33;20197;-63
2021/10/22 01:51:53;;;;;;;30.73;28.77;;;6.20;99.90;;;;;;4361815;33;20159;-60
2021/10/22 01:54:20;;;;;;;31.53;29.40;;;6.20;99.90;;;;;;4359246;33;20200;-63
2021/10/22 01:56:49;;;;;;;28.90;27.33;;;6.20;99.90;;;;;;4360279;33;20643;-61
2021/10/22 01:59:16;;;;;;;33.37;31.13;;;6.20;99.90;;;;;;4361015;33;20230;-61
2021/10/22 02:01:43;;;;;;;30.70;28.93;;;6.20;99.90;;;;;;4360513;33;20168;-60
2021/10/22 02:04:09;;;;;;;32.40;30.17;;;6.10;99.90;;;;;;4359987;32;20169;-61
2021/10/22 02:06:36;;;;;;;32.07;30.07;;;6.10;99.90;;;;;;4363097;32;20250;-61
2021/10/22 02:09:03;;;;;;;32.60;29.83;;;6.10;99.90;;;;;;4361857;32;20195;-64
2021/10/22 02:11:30;;;;;;;29.80;28.03;;;6.10;99.90;;;;;;4362102;32;20200;-60
2021/10/22 02:13:58;;;;;;;35.77;33.17;;;6.10;99.90;;;;;;4362321;33;20173;-62
2021/10/22 02:16:25;;;;;;;32.83;30.70;;;6.10;99.90;;;;;;4364741;32;20615;-61
2021/10/22 02:18:53;;;;;;;28.10;26.50;;;6.10;99.90;;;;;;4362469;32;20172;-59
2021/10/22 02:21:20;;;;;;;27.33;25.73;;;6.10;99.90;;;;;;4362382;33;20201;-61
2021/10/22 02:23:46;;;;;;;31.10;29.33;;;6.10;99.90;;;;;;4364133;32;20202;-62
2021/10/22 02:26:13;;;;;;;29.13;27.53;;;6.10;99.90;;;;;;4362071;33;20191;-61
2021/10/22 02:28:40;;;;;;;29.30;27.50;;;6.10;99.90;;;;;;4361819;32;20510;-61
2021/10/22 02:31:08;;;;;;;30.67;28.60;;;6.20;99.90;;;;;;4364135;32;20164;-62
2021/10/22 02:33:35;;;;;;;27.97;26.43;;;6.10;99.90;;;;;;4361750;33;20279;-60
2021/10/22 02:36:04;;;;;;;30.13;28.20;;;6.20;99.90;;;;;;4362698;33;20166;-59
2021/10/22 02:38:31;;;;;;;30.77;28.77;;;6.20;99.90;;;;;;4361397;33;20160;-60
2021/10/22 02:40:58;;;;;;;32.53;30.43;;;6.20;99.90;;;;;;4358804;33;20189;-60
2021/10/22 02:43:25;;;;;;;33.33;31.53;;;6.20;99.90;;;;;;4362237;33;20181;-62
2021/10/22 02:45:52;;;;;;;30.87;28.90;;;6.20;99.90;;;;;;4375416;32;20216;-62
2021/10/22 02:48:21;;;;;;;35.27;32.80;;;6.10;99.90;;;;;;4369590;32;20180;-63
2021/10/22 02:50:47;;;;;;;33.30;31.47;;;6.10;99.90;;;;;;4362167;33;20168;-60
2021/10/22 02:53:15;;;;;;;33.83;31.90;;;6.10;99.90;;;;;;4361845;33;20156;-60
2021/10/22 02:55:42;;;;;;;31.93;30.20;;;6.10;99.90;;;;;;4363196;32;20223;-60
2021/10/22 02:58:10;;;;;;;33.83;31.60;;;6.00;99.90;;;;;;4361615;32;20207;-60
2021/10/22 03:00:37;;;;;;;34.07;32.27;;;6.00;99.90;;;;;;4361940;33;20195;-60
2021/10/22 03:03:04;;;;;;;40.47;38.07;;;6.00;99.90;;;;;;4356601;33;20173;-63
2021/10/22 03:05:33;;;;;;;37.43;35.27;;;6.10;99.90;;;;;;4360206;32;20613;-62
2021/10/22 03:08:00;;;;;;;36.57;34.13;;;6.00;99.90;;;;;;4349780;33;20188;-61
2021/10/22 03:10:27;;;;;;;41.20;38.10;;;6.10;99.90;;;;;;4363081;32;20191;-60
2021/10/22 03:12:55;;;;;;;38.00;35.97;;;6.00;99.90;;;;;;4359682;33;20180;-62
2021/10/22 03:15:22;;;;;;;37.23;34.77;;;6.10;99.90;;;;;;4361321;32;20179;-61
2021/10/22 03:17:49;;;;;;;37.33;35.10;;;6.00;99.90;;;;;;4370861;32;20206;-62
2021/10/22 03:20:15;;;;;;;38.07;35.67;;;6.00;99.90;;;;;;4361572;33;20204;-60
2021/10/22 03:22:44;;;;;;;44.40;41.70;;;6.10;99.90;;;;;;4361203;32;20165;-60
2021/10/22 03:25:11;;;;;;;39.70;36.87;;;6.20;99.90;;;;;;4363248;32;20218;-60
2021/10/22 03:27:38;;;;;;;43.00;40.20;;;6.30;99.90;;;;;;4361188;32;20239;-61
2021/10/22 03:30:05;;;;;;;38.50;36.23;;;6.30;99.90;;;;;;4361350;32;20527;-60
2021/10/22 03:32:33;;;;;;;39.17;36.43;;;6.30;99.90;;;;;;4361404;32;20187;-61
2021/10/22 03:35:00;;;;;;;39.10;36.20;;;6.40;99.90;;;;;;4360837;32;20208;-61
2021/10/22 03:37:27;;;;;;;37.27;35.13;;;6.40;99.90;;;;;;4360718;32;20172;-62
2021/10/22 03:39:55;;;;;;;39.97;37.37;;;6.40;99.90;;;;;;4360619;33;20220;-62
2021/10/22 03:42:22;;;;;;;38.03;35.23;;;6.50;99.90;;;;;;4361680;32;20247;-61
2021/10/22 03:44:49;;;;;;;40.47;38.33;;;6.50;99.90;;;;;;4361327;33;20173;-61
2021/10/22 03:47:16;;;;;;;42.13;39.73;;;6.60;99.90;;;;;;4357307;33;20175;-61
2021/10/22 03:49:44;;;;;;;47.97;44.93;;;6.50;99.90;;;;;;4361864;32;20604;-61
2021/10/22 03:52:11;;;;;;;42.43;39.77;;;6.50;99.90;;;;;;4361819;32;20224;-60
2021/10/22 03:54:38;;;;;;;40.50;37.70;;;6.50;99.90;;;;;;4362220;32;20160;-62
2021/10/22 03:57:06;;;;;;;42.40;39.87;;;6.40;99.90;;;;;;4360543;33;20222;-63
2021/10/22 03:59:33;;;;;;;41.07;38.20;;;6.50;99.90;;;;;;4361122;32;20174;-60
2021/10/22 04:01:59;;;;;;;43.70;40.90;;;6.50;99.90;;;;;;4361767;32;20520;-62
2021/10/22 04:04:29;;;;;;;39.27;36.87;;;6.70;99.90;;;;;;4361398;32;20196;-62
2021/10/22 04:06:57;;;;;;;37.63;35.30;;;6.60;99.90;;;;;;4362006;32;20608;-60
2021/10/22 04:09:26;;;;;;;34.17;31.70;;;6.60;99.90;;;;;;4360475;32;20164;-61
2021/10/22 04:11:53;;;;;;;33.57;30.70;;;6.70;99.90;;;;;;4361357;32;20248;-60
2021/10/22 04:14:21;;;;;;;28.53;26.17;;;6.70;99.90;;;;;;4360493;33;20199;-61
2021/10/22 04:16:48;;;;;;;25.77;23.97;;;6.80;99.90;;;;;;4361044;32;20586;-60
2021/10/22 04:19:15;;;;;;;27.57;25.37;;;6.80;99.90;;;;;;4361615;32;20589;-60
2021/10/22 04:21:42;;;;;;;27.60;25.37;;;6.80;99.90;;;;;;4360735;32;20614;-61
2021/10/22 04:24:09;;;;;;;23.83;22.10;;;6.80;99.90;;;;;;4360459;33;20203;-60
2021/10/22 04:26:36;;;;;;;28.40;25.73;;;6.90;99.90;;;;;;4360546;33;20180;-61
2021/10/22 04:29:04;;;;;;;27.03;25.13;;;6.90;99.90;;;;;;4360634;32;20183;-61
2021/10/22 04:31:32;;;;;;;26.23;23.93;;;6.90;99.90;;;;;;4361549;32;20203;-61
2021/10/22 04:33:59;;;;;;;26.20;23.70;;;6.90;99.90;;;;;;4350550;33;20157;-61
2021/10/22 04:36:32;;;;;;;26.43;24.40;;;7.00;99.90;;;;;;4360834;32;20222;-61
2021/10/22 04:41:44;;;;;;;27.77;25.33;;;7.10;99.90;;;;;;4360376;32;20220;-61
2021/10/22 04:44:12;;;;;;;27.23;25.13;;;7.10;99.90;;;;;;4360752;33;20161;-61
2021/10/22 04:46:40;;;;;;;27.27;25.07;;;7.20;99.90;;;;;;4356917;33;20161;-61
2021/10/22 04:49:07;;;;;;;29.33;26.40;;;7.20;99.90;;;;;;4359653;33;20184;-63
2021/10/22 04:51:34;;;;;;;24.10;22.60;;;7.30;99.90;;;;;;4360640;33;20176;-61
2021/10/22 04:54:01;;;;;;;27.17;24.90;;;7.30;99.90;;;;;;4360106;33;20176;-61
2021/10/22 04:56:28;;;;;;;30.13;27.77;;;7.30;99.90;;;;;;4361445;32;20508;-61
2021/10/22 04:58:55;;;;;;;31.50;29.50;;;7.30;99.90;;;;;;4359871;32;20182;-61
2021/10/22 05:01:22;;;;;;;35.47;32.60;;;7.20;99.90;;;;;;4360087;33;20209;-61
2021/10/22 05:03:50;;;;;;;41.23;38.43;;;7.10;99.90;;;;;;4360205;32;20191;-61
2021/10/22 05:06:17;;;;;;;46.10;43.40;;;7.20;99.90;;;;;;4360082;32;20196;-61
2021/10/22 05:08:43;;;;;;;54.30;50.90;;;7.30;99.90;;;;;;4359883;32;20619;-61
2021/10/22 05:11:10;;;;;;;67.60;63.90;;;7.40;99.90;;;;;;4359770;33;20177;-60
2021/10/22 05:13:37;;;;;;;71.83;68.10;;;7.50;99.90;;;;;;4354713;33;20182;-61
2021/10/22 05:16:04;;;;;;;63.37;59.87;;;7.60;99.90;;;;;;4361659;32;20222;-61
2021/10/22 05:18:32;;;;;;;79.50;74.80;;;7.60;99.90;;;;;;4361052;32;20179;-61
2021/10/22 05:21:00;;;;;;;82.27;78.10;;;7.80;99.90;;;;;;4360524;32;20169;-61
2021/10/22 05:23:27;;;;;;;80.37;76.67;;;7.80;99.90;;;;;;4359865;32;20452;-61
2021/10/22 05:25:54;;;;;;;78.27;74.33;;;7.80;99.90;;;;;;4361141;32;20149;-62
2021/10/22 05:28:20;;;;;;;80.30;76.07;;;7.80;99.90;;;;;;4353581;33;20195;-62
2021/10/22 05:30:49;;;;;;;81.37;77.13;;;7.90;99.90;;;;;;4359799;33;20167;-61
2021/10/22 05:33:16;;;;;;;75.23;71.67;;;7.90;99.90;;;;;;4360298;33;20183;-62
2021/10/22 05:35:43;;;;;;;77.63;73.17;;;7.90;99.90;;;;;;4359093;33;20508;-61
2021/10/22 05:38:12;;;;;;;91.60;86.63;;;8.00;99.90;;;;;;4359530;33;20691;-61
2021/10/22 05:40:40;;;;;;;92.10;87.43;;;7.90;99.90;;;;;;4362139;33;20188;-61
2021/10/22 05:43:06;;;;;;;84.53;80.23;;;8.00;99.90;;;;;;4363910;32;20252;-62
2021/10/22 05:45:33;;;;;;;77.47;73.00;;;8.00;99.90;;;;;;4364180;32;20176;-61
2021/10/22 05:48:02;;;;;;;68.57;64.57;;;7.90;99.90;;;;;;4362752;33;20225;-61
2021/10/22 05:50:29;;;;;;;68.77;65.27;;;7.80;99.90;;;;;;4364695;32;20490;-63
2021/10/22 05:52:56;;;;;;;74.43;70.97;;;7.90;99.90;;;;;;4362253;33;20227;-63
2021/10/22 05:55:29;;;;;;;64.47;60.90;;;7.90;99.90;;;;;;4361607;32;20914;-61
2021/10/22 05:57:57;;;;;;;51.70;48.83;;;8.10;99.90;;;;;;4362068;32;20281;-59
2021/10/22 06:00:24;;;;;;;51.83;49.03;;;8.00;99.90;;;;;;4361466;32;20175;-61
2021/10/22 06:02:53;;;;;;;52.83;49.97;;;8.00;99.90;;;;;;4358796;32;20173;-61
2021/10/22 06:05:20;;;;;;;40.83;37.50;;;8.10;99.90;;;;;;4374920;32;20186;-62
2021/10/22 06:07:47;;;;;;;31.90;30.07;;;8.10;99.90;;;;;;4371159;32;20223;-63
2021/10/22 06:10:14;;;;;;;33.40;31.33;;;8.10;99.90;;;;;;4360597;32;20595;-61
2021/10/22 06:12:42;;;;;;;35.53;33.27;;;8.00;99.90;;;;;;4366569;32;20161;-61
2021/10/22 06:15:10;;;;;;;31.97;29.97;;;7.90;99.90;;;;;;4369960;32;20182;-61
2021/10/22 06:17:36;;;;;;;35.00;33.00;;;7.80;99.90;;;;;;4363700;32;20200;-63
2021/10/22 06:20:10;;;;;;;36.47;34.20;;;7.90;99.90;;;;;;4367465;32;20585;-61
2021/10/22 06:22:51;;;;;;;33.20;31.00;;;7.80;99.90;;;;;;4360023;32;20185;-64
2021/10/22 06:25:19;;;;;;;33.27;31.30;;;7.80;99.90;;;;;;4361738;32;20193;-62
2021/10/22 06:27:47;;;;;;;34.40;32.23;;;7.80;99.90;;;;;;4360301;32;20164;-63
2021/10/22 06:30:14;;;;;;;32.87;30.97;;;7.80;99.90;;;;;;4362035;32;20158;-61
2021/10/22 06:32:45;;;;;;;30.57;28.70;;;7.80;99.90;;;;;;4363326;32;20166;-62
2021/10/22 06:35:12;;;;;;;28.10;26.23;;;7.90;99.90;;;;;;4362902;32;20172;-62
2021/10/22 06:37:39;;;;;;;27.57;25.93;;;7.90;99.90;;;;;;4361714;32;20176;-61
2021/10/22 06:40:07;;;;;;;31.67;29.37;;;8.00;99.90;;;;;;4364135;32;20199;-61
2021/10/22 06:42:34;;;;;;;24.27;22.63;;;8.00;99.90;;;;;;4363727;32;20533;-62
2021/10/22 06:45:02;;;;;;;25.57;24.07;;;8.10;99.90;;;;;;4364797;32;20187;-61
2021/10/22 06:47:29;;;;;;;23.47;21.33;;;8.20;99.90;;;;;;4361954;32;20195;-62
2021/10/22 06:49:56;;;;;;;23.17;21.50;;;8.20;99.90;;;;;;4363331;32;20195;-62
2021/10/22 06:52:23;;;;;;;21.10;19.07;;;8.20;99.90;;;;;;4361630;32;20165;-62
2021/10/22 06:54:51;;;;;;;23.33;21.10;;;8.20;99.90;;;;;;4363504;32;20203;-61
2021/10/22 06:57:18;;;;;;;23.27;21.67;;;8.20;99.90;;;;;;4361887;32;20180;-62
2021/10/22 06:59:45;;;;;;;24.93;23.20;;;8.50;99.90;;;;;;4363549;32;20183;-62
2021/10/22 07:02:13;;;;;;;24.87;23.10;;;8.70;99.90;;;;;;4363498;32;20249;-64
2021/10/22 07:04:47;;;;;;;25.20;22.87;;;8.80;99.90;;;;;;4363322;32;20165;-64
2021/10/22 07:07:16;;;;;;;23.77;21.50;;;8.90;99.90;;;;;;4362366;32;20172;-61
2021/10/22 07:09:43;;;;;;;20.20;18.83;;;9.00;99.90;;;;;;4363209;32;20515;-61
2021/10/22 07:12:10;;;;;;;22.90;20.90;;;9.20;99.90;;;;;;4366212;32;20173;-61
2021/10/22 07:14:37;;;;;;;24.40;23.00;;;9.20;99.90;;;;;;4361296;32;20155;-61
2021/10/22 07:17:05;;;;;;;25.37;23.53;;;9.10;99.90;;;;;;4361819;32;20187;-61
2021/10/22 07:19:35;;;;;;;26.97;24.63;;;8.90;99.90;;;;;;4360976;33;20610;-64
2021/10/22 07:22:05;;;;;;;26.53;24.53;;;9.00;99.90;;;;;;4361350;33;20161;-61
2021/10/22 07:24:32;;;;;;;22.80;21.37;;;9.10;99.90;;;;;;4361239;33;20156;-62
2021/10/22 07:27:00;;;;;;;24.97;23.50;;;9.30;99.90;;;;;;4361953;32;20493;-62
2021/10/22 07:29:27;;;;;;;24.50;22.73;;;9.20;99.90;;;;;;4361900;32;20609;-61
2021/10/22 07:31:54;;;;;;;23.20;21.37;;;9.10;99.90;;;;;;4360882;32;20171;-61
2021/10/22 07:34:22;;;;;;;24.23;22.23;;;9.00;99.90;;;;;;4362188;32;20467;-61
2021/10/22 07:36:51;;;;;;;25.73;23.60;;;9.30;99.90;;;;;;4361243;32;20242;-61
2021/10/22 07:39:18;;;;;;;27.13;24.77;;;9.60;99.90;;;;;;4359169;33;20509;-61
2021/10/22 07:41:45;;;;;;;23.87;22.17;;;9.80;99.90;;;;;;4360184;32;20167;-61
2021/10/22 07:44:13;;;;;;;23.63;21.97;;;10.00;99.90;;;;;;4361024;32;20215;-61
2021/10/22 07:46:42;;;;;;;23.60;21.77;;;10.00;99.90;;;;;;4361223;33;20166;-61
2021/10/22 07:49:09;;;;;;;27.43;21.13;;;10.10;99.90;;;;;;4361129;33;20641;-61
2021/10/22 07:51:35;;;;;;;22.67;20.43;;;10.20;99.90;;;;;;4361322;33;20175;-61
2021/10/22 07:54:04;;;;;;;25.77;23.83;;;10.20;99.90;;;;;;4359180;32;20180;-61
2021/10/22 07:56:31;;;;;;;26.93;24.60;;;10.10;99.90;;;;;;4349477;32;20592;-61
2021/10/22 07:58:58;;;;;;;25.13;23.30;;;10.00;99.90;;;;;;4359741;32;20232;-61
2021/10/22 08:01:25;;;;;;;26.53;24.27;;;9.90;99.90;;;;;;4359394;32;20598;-62
2021/10/22 08:03:52;;;;;;;24.37;22.07;;;9.90;99.90;;;;;;4361876;32;20605;-61
2021/10/22 08:06:21;;;;;;;27.93;25.27;;;10.00;99.90;;;;;;4360520;33;20472;-61
2021/10/22 08:08:48;;;;;;;24.83;23.00;;;10.20;99.90;;;;;;4367145;32;20239;-60
2021/10/22 08:11:16;;;;;;;25.37;23.00;;;10.70;99.90;;;;;;4360973;33;20188;-61
2021/10/22 08:13:44;;;;;;;24.73;22.80;;;10.90;99.90;;;;;;4357978;32;20194;-61
2021/10/22 08:16:14;;;;;;;23.10;21.37;;;11.00;99.90;;;;;;4362616;32;20604;-61
2021/10/22 08:18:41;;;;;;;24.10;22.40;;;11.10;99.90;;;;;;4360846;33;20175;-61
2021/10/22 08:21:18;;;;;;;22.77;20.97;;;11.00;99.90;;;;;;4360323;32;20185;-61
2021/10/22 08:23:46;;;;;;;23.60;22.10;;;11.10;99.90;;;;;;4360082;33;20241;-61
2021/10/22 08:26:15;;;;;;;22.43;20.83;;;11.00;99.90;;;;;;4362720;32;20152;-61
2021/10/22 08:28:43;;;;;;;21.60;19.53;;;11.10;99.90;;;;;;4359190;32;20681;-61
2021/10/22 08:31:15;;;;;;;21.83;20.20;;;11.10;99.90;;;;;;4360141;32;20156;-61
2021/10/22 08:33:42;;;;;;;21.73;20.10;;;11.10;99.90;;;;;;4354889;32;20243;-61
2021/10/22 08:36:10;;;;;;;24.40;22.63;;;11.10;99.90;;;;;;4359527;32;20168;-61
2021/10/22 08:38:37;;;;;;;24.57;22.87;;;11.10;99.90;;;;;;4358580;32;20524;-62
2021/10/22 08:41:08;;;;;;;25.60;23.77;;;11.20;99.90;;;;;;4358859;33;20220;-61
2021/10/22 08:43:40;;;;;;;25.60;23.80;;;11.30;99.90;;;;;;4357971;32;20625;-62
2021/10/22 08:46:12;;;;;;;23.67;21.13;;;11.50;99.90;;;;;;4358694;32;20239;-61
2021/10/22 08:48:40;;;;;;;24.37;22.03;;;11.50;99.90;;;;;;4359095;32;20551;-61
2021/10/22 08:51:10;;;;;;;26.97;24.90;;;11.40;99.90;;;;;;4356385;32;20196;-61
2021/10/22 08:53:37;;;;;;;23.33;21.47;;;11.50;99.90;;;;;;4357338;32;20187;-61
2021/10/22 08:56:05;;;;;;;26.37;24.33;;;11.60;99.90;;;;;;4357216;33;20200;-61
2021/10/22 08:58:32;;;;;;;25.53;23.53;;;11.60;99.90;;;;;;4357676;32;20166;-61
2021/10/22 09:01:00;;;;;;;23.63;21.70;;;11.60;99.90;;;;;;4356714;33;20550;-61
2021/10/22 09:03:36;;;;;;;25.53;23.50;;;11.60;99.90;;;;;;4355101;33;20262;-62
2021/10/22 09:06:14;;;;;;;28.00;25.07;;;11.30;99.90;;;;;;4358198;33;20180;-61
2021/10/22 09:08:45;;;;;;;26.93;24.73;;;11.00;99.90;;;;;;4355752;32;20188;-62
2021/10/22 09:11:24;;;;;;;27.10;25.30;;;10.70;99.90;;;;;;4357631;32;20258;-61
2021/10/22 09:14:05;;;;;;;34.07;31.43;;;10.60;99.90;;;;;;4357569;32;20173;-61
2021/10/22 09:16:41;;;;;;;31.60;29.17;;;10.40;99.90;;;;;;4357204;33;20165;-61
2021/10/22 09:19:08;;;;;;;28.20;25.97;;;10.40;99.90;;;;;;4360171;32;20176;-60
2021/10/22 09:21:35;;;;;;;30.40;28.20;;;10.40;99.90;;;;;;4355853;32;20616;-61
2021/10/22 09:24:17;;;;;;;32.53;29.87;;;10.40;99.90;;;;;;4356572;32;20209;-61
2021/10/22 09:26:51;;;;;;;33.97;31.70;;;10.60;99.90;;;;;;4355689;32;20273;-61
2021/10/22 09:29:20;;;;;;;30.37;28.00;;;10.60;99.90;;;;;;4355638;33;20180;-61
2021/10/22 09:31:52;;;;;;;29.33;26.63;;;10.50;99.90;;;;;;4359747;32;20169;-61
2021/10/22 09:34:30;;;;;;;28.63;26.47;;;10.40;99.90;;;;;;4364273;32;20190;-64
2021/10/22 09:36:58;;;;;;;32.67;30.17;;;10.40;99.90;;;;;;4356097;32;20179;-61
2021/10/22 09:39:26;;;;;;;30.90;28.77;;;10.40;99.90;;;;;;4360655;32;20183;-62
2021/10/22 09:41:55;;;;;;;33.50;31.83;;;10.50;99.90;;;;;;4369455;32;20174;-61
2021/10/22 09:44:24;;;;;;;29.63;27.80;;;10.60;99.90;;;;;;4367584;32;20164;-62
2021/10/22 09:47:12;;;;;;;31.60;28.93;;;10.50;99.90;;;;;;4360749;32;20165;-62
2021/10/22 09:49:41;;;;;;;31.83;29.10;;;10.50;99.90;;;;;;4367824;32;20214;-63
2021/10/22 09:52:14;;;;;;;31.47;28.90;;;10.60;99.90;;;;;;4359439;32;20271;-62
2021/10/22 09:54:41;;;;;;;35.60;33.20;;;10.50;99.90;;;;;;4367946;32;20246;-62
2021/10/22 09:57:08;;;;;;;35.73;33.07;;;10.50;99.90;;;;;;4358101;32;20160;-61
2021/10/22 09:59:38;;;;;;;30.70;28.50;;;10.50;99.90;;;;;;4353195;32;20224;-65
2021/10/22 10:02:11;;;;;;;33.33;30.93;;;10.40;99.90;;;;;;4355539;32;20243;-62
2021/10/22 10:04:38;;;;;;;36.17;33.57;;;10.40;99.90;;;;;;4357882;32;20188;-64
2021/10/22 10:07:08;;;;;;;33.80;31.57;;;10.50;99.90;;;;;;4359155;32;20239;-62
2021/10/22 10:09:37;;;;;;;31.20;28.80;;;10.60;99.90;;;;;;4360217;33;20186;-60
2021/10/22 10:12:05;;;;;;;32.23;30.10;;;10.70;99.90;;;;;;4356264;32;20153;-62
2021/10/22 10:14:34;;;;;;;36.63;33.93;;;10.70;99.90;;;;;;4361074;32;20190;-62
2021/10/22 10:17:05;;;;;;;32.07;30.20;;;10.70;99.90;;;;;;4356128;33;20187;-65
2021/10/22 10:19:41;;;;;;;34.50;31.93;;;10.70;99.90;;;;;;4360003;33;20161;-64
2021/10/22 10:22:11;;;;;;;30.47;28.57;;;10.60;99.90;;;;;;4359077;32;20165;-62
2021/10/22 10:24:41;;;;;;;38.60;35.60;;;10.60;99.90;;;;;;4360461;32;20518;-62
2021/10/22 10:27:10;;;;;;;33.87;31.40;;;10.60;99.90;;;;;;4362334;33;20168;-62
2021/10/22 10:29:41;;;;;;;36.77;34.13;;;10.60;99.90;;;;;;4360720;33;20156;-64
2021/10/22 10:32:20;;;;;;;34.37;31.93;;;10.60;99.90;;;;;;4357697;32;20156;-64
2021/10/22 10:34:51;;;;;;;34.37;31.77;;;10.60;99.90;;;;;;4359746;32;20191;-63
2021/10/22 10:37:29;;;;;;;35.10;32.30;;;10.70;99.90;;;;;;4362086;33;20160;-63
2021/10/22 10:40:04;;;;;;;35.77;32.67;;;10.80;99.90;;;;;;4363508;32;20489;-63
2021/10/22 10:42:36;;;;;;;33.63;31.23;;;10.90;99.90;;;;;;4357807;33;20175;-66
2021/10/22 10:45:07;;;;;;;33.90;31.27;;;11.10;99.90;;;;;;4356195;32;20227;-62
2021/10/22 10:47:47;;;;;;;33.70;31.30;;;11.60;99.90;;;;;;4362796;32;20157;-61
2021/10/22 10:50:25;;;;;;;30.63;28.37;;;12.00;99.90;;;;;;4359102;32;20491;-64
2021/10/22 10:52:55;;;;;;;30.70;28.27;;;12.20;99.90;;;;;;4364019;32;20179;-63
2021/10/22 10:55:27;;;;;;;32.03;30.13;;;12.40;99.90;;;;;;4361510;32;20625;-62
2021/10/22 10:57:59;;;;;;;34.23;31.30;;;12.50;99.90;;;;;;4368698;32;20617;-63
2021/10/22 11:00:31;;;;;;;37.00;34.60;;;12.50;99.90;;;;;;4365303;32;20166;-61
2021/10/22 11:03:21;;;;;;;37.63;34.70;;;12.20;99.90;;;;;;4363474;32;20167;-63
2021/10/22 11:06:14;;;;;;;36.70;34.23;;;11.70;99.90;;;;;;4326807;33;20180;-62
2021/10/22 11:08:51;;;;;;;36.43;34.00;;;11.40;99.90;;;;;;4329641;33;20153;-62
2021/10/22 11:11:35;;;;;;;43.97;40.77;;;11.30;99.90;;;;;;4327737;33;20395;-65
2021/10/22 11:14:22;;;;;;;36.93;34.57;;;11.20;99.90;;;;;;4327015;33;20169;-64
2021/10/22 11:16:55;;;;;;;37.20;35.00;;;10.90;99.90;;;;;;4325689;33;20208;-61
2021/10/22 11:19:28;;;;;;;37.97;35.60;;;10.80;99.90;;;;;;4322067;33;20788;-61
2021/10/22 11:22:01;;;;;;;39.30;37.00;;;10.80;99.90;;;;;;4319975;33;20655;-61
2021/10/22 11:24:30;;;;;;;33.03;30.37;;;11.10;99.90;;;;;;4326604;33;20199;-61
2021/10/22 11:26:59;;;;;;;38.70;36.13;;;11.50;99.90;;;;;;4325750;33;20183;-61
2021/10/22 11:29:26;;;;;;;37.27;35.37;;;11.80;99.90;;;;;;4325669;33;20169;-63
2021/10/22 11:31:56;;;;;;;33.50;31.60;;;12.20;99.90;;;;;;4330076;33;20226;-62
2021/10/22 11:34:24;;;;;;;31.73;29.67;;;12.40;99.90;;;;;;4329045;33;20515;-62
2021/10/22 11:36:57;;;;;;;35.23;33.27;;;12.50;99.90;;;;;;4324145;33;20248;-65
2021/10/22 11:39:28;;;;;;;37.00;34.93;;;12.60;99.90;;;;;;4326600;33;20223;-63
2021/10/22 11:42:12;;;;;;;38.63;36.40;;;12.70;99.90;;;;;;4328660;33;20165;-62
2021/10/22 11:44:40;;;;;;;35.67;32.73;;;12.70;99.90;;;;;;4358175;32;20168;-62
2021/10/22 11:47:12;;;;;;;36.80;34.30;;;12.60;99.90;;;;;;4355136;33;20168;-62
2021/10/22 11:49:40;;;;;;;33.93;31.83;;;12.50;99.90;;;;;;4357752;32;20160;-61
2021/10/22 11:52:10;;;;;;;33.20;31.37;;;12.50;99.90;;;;;;4357452;32;20182;-62
2021/10/22 11:54:42;;;;;;;39.03;36.27;;;12.70;99.90;;;;;;4355608;32;20183;-64
2021/10/22 11:57:13;;;;;;;34.13;31.97;;;13.10;99.90;;;;;;4353868;32;20238;-64
2021/10/22 11:59:59;;;;;;;36.00;34.00;;;13.30;99.90;;;;;;4349877;32;20219;-62
2021/10/22 12:02:28;;;;;;;32.07;29.97;;;13.40;99.90;;;;;;4356859;32;20243;-61
2021/10/22 12:04:59;;;;;;;33.70;31.43;;;13.50;99.90;;;;;;4358611;32;20164;-63
2021/10/22 12:07:31;;;;;;;39.60;36.93;;;13.50;99.90;;;;;;4358514;32;20172;-62
2021/10/22 12:10:00;;;;;;;41.33;38.53;;;13.50;99.90;;;;;;4369189;32;20169;-62
2021/10/22 12:12:34;;;;;;;37.73;35.50;;;13.60;99.90;;;;;;4356261;32;20334;-62
2021/10/22 12:15:01;;;;;;;36.00;33.70;;;13.60;99.90;;;;;;4358091;32;20172;-62
2021/10/22 12:17:29;;;;;;;32.23;30.27;;;13.90;99.90;;;;;;4366981;32;20171;-62
2021/10/22 12:19:59;;;;;;;30.20;28.13;;;13.90;99.90;;;;;;4358501;32;20530;-62
2021/10/22 12:22:26;;;;;;;28.10;25.57;;;13.90;99.90;;;;;;4360467;32;20168;-62
2021/10/22 12:24:56;;;;;;;27.50;25.37;;;13.90;99.90;;;;;;4357608;32;20184;-63
2021/10/22 12:27:27;;;;;;;28.87;27.03;;;13.70;99.90;;;;;;4360361;32;20180;-63
2021/10/22 12:29:57;;;;;;;28.03;26.27;;;13.50;99.90;;;;;;4360744;32;20226;-65
2021/10/22 12:32:44;;;;;;;31.10;29.20;;;13.30;99.90;;;;;;4357806;32;20169;-64
2021/10/22 12:35:23;;;;;;;32.60;30.80;;;13.00;99.90;;;;;;4359040;32;20164;-64
2021/10/22 12:38:01;;;;;;;32.43;30.47;;;12.70;99.90;;;;;;4363918;32;20246;-62
2021/10/22 12:40:31;;;;;;;37.90;35.60;;;12.40;99.90;;;;;;4364859;32;20251;-66
2021/10/22 12:43:08;;;;;;;37.60;35.37;;;12.10;99.90;;;;;;4359560;32;20224;-60
2021/10/22 12:45:41;;;;;;;39.13;36.53;;;11.90;99.90;;;;;;4360281;32;20202;-62